createdAt,value
2018-06-07T00:00:01.104Z,0.00
2018-06-07T00:01:01.172Z,0.00
2018-06-07T00:02:01.395Z,0.00
2018-06-07T00:03:01.304Z,0.00
2018-06-07T00:04:01.372Z,0.00
2018-06-07T00:05:01.436Z,0.00
2018-06-07T00:06:01.508Z,0.00
2018-06-07T00:07:01.581Z,0.00
2018-06-07T00:08:01.648Z,0.00
2018-06-07T00:09:01.712Z,0.00
2018-06-07T00:10:01.777Z,0.00
2018-06-07T00:11:01.845Z,0.00
2018-06-07T00:12:01.922Z,0.00
2018-06-07T00:13:01.988Z,0.00
2018-06-07T00:14:02.055Z,0.00
2018-06-07T00:15:02.116Z,0.00
2018-06-07T00:16:02.187Z,0.00
2018-06-07T00:17:02.360Z,0.00
2018-06-07T00:18:02.317Z,0.00
2018-06-07T00:19:02.385Z,0.00
2018-06-07T00:20:02.453Z,0.00
2018-06-07T00:21:02.521Z,0.00
2018-06-07T00:22:02.593Z,0.00
2018-06-07T00:23:02.661Z,0.00
2018-06-07T00:24:02.724Z,0.00
2018-06-07T00:25:02.789Z,0.00
2018-06-07T00:26:02.856Z,0.00
2018-06-07T00:27:02.933Z,0.00
2018-06-07T00:28:02.997Z,0.00
2018-06-07T00:29:03.060Z,0.00
2018-06-07T00:30:03.125Z,0.00
2018-06-07T00:31:03.193Z,0.00
2018-06-07T00:32:03.469Z,0.00
2018-06-07T00:33:03.333Z,0.00
2018-06-07T00:34:03.397Z,0.00
2018-06-07T00:35:03.465Z,0.00
2018-06-07T00:36:03.533Z,0.00
2018-06-07T00:37:03.605Z,0.00
2018-06-07T00:38:03.673Z,0.00
2018-06-07T00:39:03.733Z,0.00
2018-06-07T00:40:03.801Z,0.00
2018-06-07T00:41:03.869Z,0.00
2018-06-07T00:42:03.942Z,0.00
2018-06-07T00:43:04.010Z,0.00
2018-06-07T00:44:04.069Z,0.00
2018-06-07T00:45:04.141Z,0.00
2018-06-07T00:46:04.206Z,0.00
2018-06-07T00:47:04.293Z,0.00
2018-06-07T00:48:04.338Z,0.00
2018-06-07T00:49:04.406Z,0.00
2018-06-07T00:50:04.474Z,0.00
2018-06-07T00:51:04.538Z,0.00
2018-06-07T00:52:04.614Z,0.00
2018-06-07T00:53:04.682Z,0.00
2018-06-07T00:54:04.745Z,0.00
2018-06-07T00:55:04.810Z,0.00
2018-06-07T00:56:04.871Z,0.00
2018-06-07T00:57:04.950Z,0.00
2018-06-07T00:58:05.035Z,0.00
2018-06-07T00:59:05.087Z,0.00
2018-06-07T01:00:05.147Z,0.00
2018-06-07T01:01:05.216Z,0.00
2018-06-07T01:02:05.418Z,0.00
2018-06-07T01:03:05.350Z,0.00
2018-06-07T01:04:05.415Z,0.00
2018-06-07T01:05:05.479Z,0.00
2018-06-07T01:06:05.563Z,0.00
2018-06-07T01:07:05.638Z,0.00
2018-06-07T01:08:05.695Z,0.00
2018-06-07T01:09:05.751Z,0.00
2018-06-07T01:10:05.811Z,0.00
2018-06-07T01:11:05.887Z,0.00
2018-06-07T01:12:05.963Z,0.00
2018-06-07T01:13:06.031Z,0.00
2018-06-07T01:14:06.088Z,0.00
2018-06-07T01:15:06.151Z,0.00
2018-06-07T01:16:06.227Z,0.00
2018-06-07T01:17:06.315Z,0.00
2018-06-07T01:18:06.363Z,0.00
2018-06-07T01:19:06.424Z,0.00
2018-06-07T01:20:06.492Z,0.00
2018-06-07T01:21:06.565Z,0.00
2018-06-07T01:22:06.635Z,0.00
2018-06-07T01:23:06.708Z,0.00
2018-06-07T01:24:06.756Z,0.00
2018-06-07T01:25:06.832Z,0.00
2018-06-07T01:26:06.900Z,0.00
2018-06-07T01:27:06.975Z,0.00
2018-06-07T01:28:07.040Z,0.00
2018-06-07T01:29:07.096Z,0.00
2018-06-07T01:30:07.152Z,0.00
2018-06-07T01:31:07.228Z,0.00
2018-06-07T01:32:07.436Z,0.00
2018-06-07T01:33:07.372Z,0.00
2018-06-07T01:34:07.428Z,0.00
2018-06-07T01:35:07.490Z,0.00
2018-06-07T01:36:07.573Z,0.00
2018-06-07T01:37:07.644Z,0.00
2018-06-07T01:38:07.705Z,0.00
2018-06-07T01:39:07.761Z,0.00
2018-06-07T01:40:07.821Z,0.00
2018-06-07T01:41:07.896Z,0.00
2018-06-07T01:42:07.973Z,0.00
2018-06-07T01:43:08.041Z,0.00
2018-06-07T01:44:08.094Z,0.00
2018-06-07T01:45:08.157Z,0.00
2018-06-07T01:46:08.233Z,0.00
2018-06-07T01:47:08.292Z,0.00
2018-06-07T01:48:08.397Z,0.00
2018-06-07T01:49:08.430Z,0.00
2018-06-07T01:50:08.497Z,0.00
2018-06-07T01:51:08.561Z,0.00
2018-06-07T01:52:08.625Z,0.00
2018-06-07T01:53:08.721Z,0.00
2018-06-07T01:54:08.765Z,0.00
2018-06-07T01:55:08.825Z,0.00
2018-06-07T01:56:08.905Z,0.00
2018-06-07T01:57:08.961Z,0.00
2018-06-07T01:58:09.045Z,0.00
2018-06-07T01:59:09.097Z,0.00
2018-06-07T02:00:09.161Z,0.00
2018-06-07T02:01:09.233Z,0.00
2018-06-07T02:02:09.297Z,0.00
2018-06-07T02:03:09.493Z,0.00
2018-06-07T02:04:09.429Z,0.00
2018-06-07T02:05:09.514Z,0.00
2018-06-07T02:06:09.578Z,0.00
2018-06-07T02:07:09.626Z,0.00
2018-06-07T02:08:09.710Z,0.00
2018-06-07T02:09:09.778Z,0.00
2018-06-07T02:10:09.830Z,0.00
2018-06-07T02:11:09.898Z,0.00
2018-06-07T02:12:09.972Z,0.00
2018-06-07T02:13:10.043Z,0.00
2018-06-07T02:14:10.106Z,0.00
2018-06-07T02:15:10.166Z,0.00
2018-06-07T02:16:10.234Z,0.00
2018-06-07T02:17:10.302Z,0.00
2018-06-07T02:18:10.374Z,0.00
2018-06-07T02:19:10.450Z,0.00
2018-06-07T02:20:10.494Z,0.00
2018-06-07T02:21:10.570Z,0.00
2018-06-07T02:22:10.630Z,0.00
2018-06-07T02:23:10.714Z,0.00
2018-06-07T02:24:10.774Z,0.00
2018-06-07T02:25:10.830Z,0.00
2018-06-07T02:26:10.906Z,0.00
2018-06-07T02:27:10.966Z,0.00
2018-06-07T02:28:11.046Z,0.00
2018-06-07T02:29:11.106Z,0.00
2018-06-07T02:30:11.167Z,0.00
2018-06-07T02:31:11.246Z,0.00
2018-06-07T02:32:11.299Z,0.00
2018-06-07T02:33:11.376Z,0.00
2018-06-07T02:34:11.447Z,0.00
2018-06-07T02:35:11.499Z,0.00
2018-06-07T02:36:11.575Z,4.00
2018-06-07T02:37:11.651Z,4.00
2018-06-07T02:38:11.710Z,4.00
2018-06-07T02:39:11.776Z,4.00
2018-06-07T02:40:11.831Z,4.00
2018-06-07T02:41:11.903Z,0.00
2018-06-07T02:42:11.965Z,0.00
2018-06-07T02:43:12.043Z,0.00
2018-06-07T02:44:12.137Z,0.00
2018-06-07T02:45:12.167Z,0.00
2018-06-07T02:46:12.251Z,4.00
2018-06-07T02:47:12.304Z,0.00
2018-06-07T02:48:12.543Z,4.00
2018-06-07T02:49:12.459Z,4.00
2018-06-07T02:50:12.499Z,4.00
2018-06-07T02:51:12.567Z,0.00
2018-06-07T02:52:12.628Z,4.00
2018-06-07T02:53:12.706Z,4.00
2018-06-07T02:54:12.771Z,4.00
2018-06-07T02:55:12.833Z,4.00
2018-06-07T02:56:12.899Z,4.00
2018-06-07T02:57:12.964Z,8.00
2018-06-07T02:58:13.044Z,8.00
2018-06-07T02:59:13.100Z,8.00
2018-06-07T03:00:13.163Z,12.00
2018-06-07T03:01:13.232Z,12.00
2018-06-07T03:02:13.300Z,16.00
2018-06-07T03:03:13.396Z,20.00
2018-06-07T03:04:13.432Z,24.00
2018-06-07T03:05:13.500Z,24.00
2018-06-07T03:06:13.564Z,28.00
2018-06-07T03:07:13.632Z,32.00
2018-06-07T03:08:13.704Z,32.00
2018-06-07T03:09:13.772Z,32.00
2018-06-07T03:10:13.832Z,32.00
2018-06-07T03:11:13.900Z,32.00
2018-06-07T03:12:13.968Z,36.00
2018-06-07T03:13:14.040Z,36.00
2018-06-07T03:14:14.100Z,44.00
2018-06-07T03:15:14.168Z,48.00
2018-06-07T03:16:14.236Z,52.00
2018-06-07T03:17:14.300Z,52.00
2018-06-07T03:18:14.492Z,60.00
2018-06-07T03:19:14.444Z,68.00
2018-06-07T03:20:14.500Z,72.00
2018-06-07T03:21:14.568Z,80.00
2018-06-07T03:22:14.632Z,88.00
2018-06-07T03:23:14.709Z,96.00
2018-06-07T03:24:14.772Z,108.00
2018-06-07T03:25:14.836Z,120.00
2018-06-07T03:26:14.900Z,136.00
2018-06-07T03:27:14.968Z,144.00
2018-06-07T03:28:15.041Z,156.00
2018-06-07T03:29:15.109Z,164.00
2018-06-07T03:30:15.169Z,172.00
2018-06-07T03:31:15.236Z,180.00
2018-06-07T03:32:15.301Z,192.00
2018-06-07T03:33:15.481Z,196.00
2018-06-07T03:34:15.437Z,208.00
2018-06-07T03:35:15.501Z,216.00
2018-06-07T03:36:15.569Z,224.00
2018-06-07T03:37:15.641Z,232.00
2018-06-07T03:38:15.709Z,244.00
2018-06-07T03:39:15.777Z,244.00
2018-06-07T03:40:15.837Z,256.00
2018-06-07T03:41:15.906Z,264.00
2018-06-07T03:42:15.969Z,280.00
2018-06-07T03:43:16.054Z,300.00
2018-06-07T03:44:16.109Z,324.00
2018-06-07T03:45:16.174Z,348.00
2018-06-07T03:46:16.238Z,376.00
2018-06-07T03:47:16.309Z,396.00
2018-06-07T03:48:16.490Z,420.00
2018-06-07T03:49:16.437Z,436.00
2018-06-07T03:50:16.522Z,452.00
2018-06-07T03:51:16.570Z,464.00
2018-06-07T03:52:16.638Z,476.00
2018-06-07T03:53:16.721Z,496.00
2018-06-07T03:54:16.778Z,524.00
2018-06-07T03:55:16.847Z,556.00
2018-06-07T03:56:16.906Z,588.00
2018-06-07T03:57:16.974Z,616.00
2018-06-07T03:58:17.047Z,640.00
2018-06-07T03:59:17.114Z,648.00
2018-06-07T04:00:17.175Z,660.00
2018-06-07T04:01:17.242Z,680.00
2018-06-07T04:02:17.311Z,708.00
2018-06-07T04:03:17.390Z,736.00
2018-06-07T04:04:17.442Z,764.00
2018-06-07T04:05:17.510Z,800.00
2018-06-07T04:06:17.601Z,828.00
2018-06-07T04:07:17.642Z,860.00
2018-06-07T04:08:17.714Z,892.00
2018-06-07T04:09:17.785Z,920.00
2018-06-07T04:10:17.881Z,952.00
2018-06-07T04:11:17.907Z,980.00
2018-06-07T04:12:17.974Z,1012.00
2018-06-07T04:13:18.050Z,1044.00
2018-06-07T04:14:18.114Z,1080.00
2018-06-07T04:15:18.178Z,1124.00
2018-06-07T04:16:18.243Z,1184.00
2018-06-07T04:17:18.310Z,1256.00
2018-06-07T04:18:18.406Z,1356.00
2018-06-07T04:19:18.443Z,1472.00
2018-06-07T04:20:18.511Z,1580.00
2018-06-07T04:21:18.579Z,1672.00
2018-06-07T04:22:18.643Z,1780.00
2018-06-07T04:23:18.719Z,1912.00
2018-06-07T04:24:18.787Z,2056.00
2018-06-07T04:25:18.847Z,2184.00
2018-06-07T04:26:18.911Z,2260.00
2018-06-07T04:27:18.979Z,2304.00
2018-06-07T04:28:19.055Z,2332.00
2018-06-07T04:29:19.119Z,2364.00
2018-06-07T04:30:19.179Z,2412.00
2018-06-07T04:31:19.249Z,2460.00
2018-06-07T04:32:19.316Z,2536.00
2018-06-07T04:33:19.611Z,2644.00
2018-06-07T04:34:19.449Z,2756.00
2018-06-07T04:35:19.515Z,2832.00
2018-06-07T04:36:19.584Z,2892.00
2018-06-07T04:37:19.651Z,2940.00
2018-06-07T04:38:19.724Z,2964.00
2018-06-07T04:39:19.794Z,2976.00
2018-06-07T04:40:19.856Z,2968.00
2018-06-07T04:41:19.920Z,2964.00
2018-06-07T04:42:19.988Z,2976.00
2018-06-07T04:43:20.060Z,2968.00
2018-06-07T04:44:20.128Z,2944.00
2018-06-07T04:45:20.188Z,2920.00
2018-06-07T04:46:20.259Z,2940.00
2018-06-07T04:47:20.324Z,3024.00
2018-06-07T04:48:20.396Z,3164.00
2018-06-07T04:49:20.464Z,3344.00
2018-06-07T04:50:20.524Z,3508.00
2018-06-07T04:51:20.595Z,3644.00
2018-06-07T04:52:20.661Z,3752.00
2018-06-07T04:53:20.736Z,3816.00
2018-06-07T04:54:20.800Z,3852.00
2018-06-07T04:55:20.890Z,3880.00
2018-06-07T04:56:20.933Z,3964.00
2018-06-07T04:57:21.001Z,4084.00
2018-06-07T04:58:21.073Z,4220.00
2018-06-07T04:59:21.141Z,4336.00
2018-06-07T05:00:21.201Z,4440.00
2018-06-07T05:01:21.269Z,4528.00
2018-06-07T05:02:21.337Z,4576.00
2018-06-07T05:03:21.409Z,4584.00
2018-06-07T05:04:21.477Z,4580.00
2018-06-07T05:05:21.541Z,4616.00
2018-06-07T05:06:21.605Z,4644.00
2018-06-07T05:07:21.673Z,4652.00
2018-06-07T05:08:21.749Z,4704.00
2018-06-07T05:09:21.817Z,4832.00
2018-06-07T05:10:21.877Z,4956.00
2018-06-07T05:11:21.945Z,5000.00
2018-06-07T05:12:22.067Z,4992.00
2018-06-07T05:13:22.194Z,4956.00
2018-06-07T05:14:22.150Z,4940.00
2018-06-07T05:15:22.219Z,5012.00
2018-06-07T05:16:22.285Z,5116.00
2018-06-07T05:17:22.354Z,5112.00
2018-06-07T05:18:22.426Z,5028.00
2018-06-07T05:19:22.493Z,4880.00
2018-06-07T05:20:22.558Z,4712.00
2018-06-07T05:21:22.625Z,4492.00
2018-06-07T05:22:22.697Z,4404.00
2018-06-07T05:23:22.766Z,4452.00
2018-06-07T05:24:22.838Z,4624.00
2018-06-07T05:25:22.900Z,4896.00
2018-06-07T05:26:22.967Z,5244.00
2018-06-07T05:27:23.034Z,5648.00
2018-06-07T05:28:23.210Z,6044.00
2018-06-07T05:29:23.173Z,6404.00
2018-06-07T05:30:23.238Z,6664.00
2018-06-07T05:31:23.306Z,6864.00
2018-06-07T05:32:23.382Z,6948.00
2018-06-07T05:33:23.447Z,6972.00
2018-06-07T05:34:23.519Z,6972.00
2018-06-07T05:35:23.579Z,6980.00
2018-06-07T05:36:23.654Z,7044.00
2018-06-07T05:37:23.718Z,7128.00
2018-06-07T05:38:23.791Z,7240.00
2018-06-07T05:39:23.863Z,7288.00
2018-06-07T05:40:23.923Z,7264.00
2018-06-07T05:41:23.996Z,7228.00
2018-06-07T05:42:24.059Z,7228.00
2018-06-07T05:43:24.235Z,7236.00
2018-06-07T05:44:24.221Z,7208.00
2018-06-07T05:45:24.263Z,6964.00
2018-06-07T05:46:24.331Z,6472.00
2018-06-07T05:47:24.403Z,5928.00
2018-06-07T05:48:24.475Z,5468.00
2018-06-07T05:49:24.551Z,5092.00
2018-06-07T05:50:24.607Z,4848.00
2018-06-07T05:51:24.675Z,4620.00
2018-06-07T05:52:24.751Z,4392.00
2018-06-07T05:53:24.819Z,4204.00
2018-06-07T05:54:24.887Z,4052.00
2018-06-07T05:55:24.951Z,3956.00
2018-06-07T05:56:25.020Z,3856.00
2018-06-07T05:57:25.095Z,3804.00
2018-06-07T05:58:25.263Z,3764.00
2018-06-07T05:59:25.230Z,3748.00
2018-06-07T06:00:25.301Z,3756.00
2018-06-07T06:01:25.363Z,3772.00
2018-06-07T06:02:25.458Z,3792.00
2018-06-07T06:03:25.540Z,3908.00
2018-06-07T06:04:25.575Z,4148.00
2018-06-07T06:05:25.702Z,4400.00
2018-06-07T06:06:25.707Z,4560.00
2018-06-07T06:07:25.778Z,4960.00
2018-06-07T06:08:25.858Z,5068.00
2018-06-07T06:09:25.932Z,5328.00
2018-06-07T06:10:25.984Z,6320.00
2018-06-07T06:11:26.052Z,7064.00
2018-06-07T06:12:26.140Z,11680.00
2018-06-07T06:13:26.300Z,21312.00
2018-06-07T06:14:26.256Z,30528.00
2018-06-07T06:15:26.328Z,33312.00
2018-06-07T06:16:26.396Z,32160.00
2018-06-07T06:17:26.472Z,31840.00
2018-06-07T06:18:26.544Z,30240.00
2018-06-07T06:19:26.616Z,30048.00
2018-06-07T06:20:26.680Z,28992.00
2018-06-07T06:21:26.845Z,9852.00
2018-06-07T06:22:26.820Z,9728.00
2018-06-07T06:23:26.900Z,33376.00
2018-06-07T06:24:26.992Z,35168.00
2018-06-07T06:25:27.036Z,35584.00
2018-06-07T06:26:27.108Z,36736.00
2018-06-07T06:27:27.180Z,37216.00
2018-06-07T06:28:27.268Z,38304.00
2018-06-07T06:29:27.328Z,38624.00
2018-06-07T06:30:27.405Z,38080.00
2018-06-07T06:31:27.476Z,38176.00
2018-06-07T06:32:27.553Z,38720.00
2018-06-07T06:33:27.647Z,37088.00
2018-06-07T06:34:27.709Z,38240.00
2018-06-07T06:35:27.777Z,39616.00
2018-06-07T06:36:27.858Z,40960.00
2018-06-07T06:37:27.929Z,41440.00
2018-06-07T06:38:28.017Z,40384.00
2018-06-07T06:39:28.085Z,39680.00
2018-06-07T06:40:28.157Z,41536.00
2018-06-07T06:41:28.233Z,42208.00
2018-06-07T06:42:28.309Z,41408.00
2018-06-07T06:43:28.393Z,41024.00
2018-06-07T06:44:28.473Z,40480.00
2018-06-07T06:45:28.541Z,40512.00
2018-06-07T06:46:28.621Z,40992.00
2018-06-07T06:47:28.701Z,40128.00
2018-06-07T06:48:28.781Z,40992.00
2018-06-07T06:49:28.928Z,42592.00
2018-06-07T06:50:28.933Z,42880.00
2018-06-07T06:51:29.009Z,42880.00
2018-06-07T06:52:29.091Z,41184.00
2018-06-07T06:53:29.185Z,41024.00
2018-06-07T06:54:29.248Z,42272.00
2018-06-07T06:55:29.325Z,43264.00
2018-06-07T06:56:29.406Z,42624.00
2018-06-07T06:57:29.486Z,42080.00
2018-06-07T06:58:29.581Z,41504.00
2018-06-07T06:59:29.649Z,41152.00
2018-06-07T07:00:29.747Z,41312.00
2018-06-07T07:01:29.803Z,41760.00
2018-06-07T07:02:29.882Z,41792.00
2018-06-07T07:03:29.970Z,40864.00
2018-06-07T07:04:30.051Z,40224.00
2018-06-07T07:05:30.122Z,37408.00
2018-06-07T07:06:30.206Z,36288.00
2018-06-07T07:07:30.282Z,35872.00
2018-06-07T07:08:30.610Z,36512.00
2018-06-07T07:09:30.447Z,36192.00
2018-06-07T07:10:30.526Z,36352.00
2018-06-07T07:11:30.606Z,36992.00
2018-06-07T07:12:30.690Z,36416.00
2018-06-07T07:13:30.775Z,37312.00
2018-06-07T07:14:30.857Z,37568.00
2018-06-07T07:15:30.930Z,36704.00
2018-06-07T07:16:31.009Z,35968.00
2018-06-07T07:17:31.087Z,36928.00
2018-06-07T07:18:31.167Z,36384.00
2018-06-07T07:19:31.592Z,36416.00
2018-06-07T07:20:31.330Z,37888.00
2018-06-07T07:21:31.415Z,38432.00
2018-06-07T07:22:31.491Z,38976.00
2018-06-07T07:23:31.571Z,40160.00
2018-06-07T07:24:31.659Z,40672.00
2018-06-07T07:25:31.739Z,39616.00
2018-06-07T07:26:31.815Z,38688.00
2018-06-07T07:27:31.895Z,39136.00
2018-06-07T07:28:31.979Z,39680.00
2018-06-07T07:29:32.063Z,39040.00
2018-06-07T07:30:32.149Z,39008.00
2018-06-07T07:31:32.219Z,38848.00
2018-06-07T07:32:32.303Z,37984.00
2018-06-07T07:33:32.384Z,36800.00
2018-06-07T07:34:32.491Z,35936.00
2018-06-07T07:35:32.552Z,36000.00
2018-06-07T07:36:32.627Z,37792.00
2018-06-07T07:37:32.711Z,38592.00
2018-06-07T07:38:32.791Z,38784.00
2018-06-07T07:39:32.879Z,37888.00
2018-06-07T07:40:32.960Z,39200.00
2018-06-07T07:41:33.036Z,40224.00
2018-06-07T07:42:33.116Z,38272.00
2018-06-07T07:43:33.200Z,37728.00
2018-06-07T07:44:33.433Z,37888.00
2018-06-07T07:45:33.365Z,37664.00
2018-06-07T07:46:33.444Z,37280.00
2018-06-07T07:47:33.526Z,34976.00
2018-06-07T07:48:33.608Z,33696.00
2018-06-07T07:49:33.696Z,36096.00
2018-06-07T07:50:33.776Z,37216.00
2018-06-07T07:51:33.856Z,37536.00
2018-06-07T07:52:33.936Z,37216.00
2018-06-07T07:53:34.018Z,35776.00
2018-06-07T07:54:34.132Z,34432.00
2018-06-07T07:55:34.183Z,34752.00
2018-06-07T07:56:34.266Z,33440.00
2018-06-07T07:57:34.348Z,32320.00
2018-06-07T07:58:34.427Z,31648.00
2018-06-07T07:59:34.516Z,31232.00
2018-06-07T08:00:34.597Z,31040.00
2018-06-07T08:01:34.673Z,30592.00
2018-06-07T08:02:34.756Z,29952.00
2018-06-07T08:03:34.836Z,29824.00
2018-06-07T08:04:34.925Z,29472.00
2018-06-07T08:05:35.013Z,29088.00
2018-06-07T08:06:35.081Z,28384.00
2018-06-07T08:07:35.165Z,28768.00
2018-06-07T08:08:35.245Z,28512.00
2018-06-07T08:09:35.445Z,27776.00
2018-06-07T08:10:35.413Z,28224.00
2018-06-07T08:11:35.493Z,27744.00
2018-06-07T08:12:35.573Z,27776.00
2018-06-07T08:13:35.661Z,27680.00
2018-06-07T08:14:35.750Z,27776.00
2018-06-07T08:15:35.825Z,27840.00
2018-06-07T08:16:35.901Z,27424.00
2018-06-07T08:17:35.984Z,26880.00
2018-06-07T08:18:36.070Z,26720.00
2018-06-07T08:19:36.311Z,26368.00
2018-06-07T08:20:36.233Z,26144.00
2018-06-07T08:21:36.313Z,26144.00
2018-06-07T08:22:36.393Z,25984.00
2018-06-07T08:23:36.469Z,25728.00
2018-06-07T08:24:36.565Z,25728.00
2018-06-07T08:25:36.648Z,25312.00
2018-06-07T08:26:36.721Z,24864.00
2018-06-07T08:27:36.802Z,24640.00
2018-06-07T08:28:36.885Z,24096.00
2018-06-07T08:29:36.970Z,24064.00
2018-06-07T08:30:37.058Z,24032.00
2018-06-07T08:31:37.129Z,23360.00
2018-06-07T08:32:37.212Z,22688.00
2018-06-07T08:33:37.294Z,22464.00
2018-06-07T08:34:37.507Z,22688.00
2018-06-07T08:35:37.458Z,22944.00
2018-06-07T08:36:37.537Z,23360.00
2018-06-07T08:37:37.618Z,23072.00
2018-06-07T08:38:37.698Z,22592.00
2018-06-07T08:39:37.822Z,20992.00
2018-06-07T08:40:37.870Z,19072.00
2018-06-07T08:41:37.946Z,18272.00
2018-06-07T08:42:38.026Z,18080.00
2018-06-07T08:43:38.110Z,17920.00
2018-06-07T08:44:38.208Z,17536.00
2018-06-07T08:45:38.275Z,17440.00
2018-06-07T08:46:38.355Z,17536.00
2018-06-07T08:47:38.426Z,17440.00
2018-06-07T08:48:38.515Z,17088.00
2018-06-07T08:49:38.606Z,16832.00
2018-06-07T08:50:38.687Z,16256.00
2018-06-07T08:51:38.763Z,15712.00
2018-06-07T08:52:38.843Z,16960.00
2018-06-07T08:53:38.918Z,15552.00
2018-06-07T08:54:39.007Z,17088.00
2018-06-07T08:55:39.091Z,18016.00
2018-06-07T08:56:39.164Z,17920.00
2018-06-07T08:57:39.243Z,17600.00
2018-06-07T08:58:39.323Z,17472.00
2018-06-07T08:59:39.423Z,17472.00
2018-06-07T09:00:39.491Z,17344.00
2018-06-07T09:01:39.568Z,17088.00
2018-06-07T09:02:39.647Z,16960.00
2018-06-07T09:03:39.727Z,17024.00
2018-06-07T09:04:39.816Z,17024.00
2018-06-07T09:05:39.896Z,16992.00
2018-06-07T09:06:39.968Z,16896.00
2018-06-07T09:07:40.053Z,16864.00
2018-06-07T09:08:40.132Z,16832.00
2018-06-07T09:09:40.364Z,16704.00
2018-06-07T09:10:40.296Z,16320.00
2018-06-07T09:11:40.372Z,14316.00
2018-06-07T09:12:40.456Z,13188.00
2018-06-07T09:13:40.532Z,14252.00
2018-06-07T09:14:40.620Z,13620.00
2018-06-07T09:15:40.704Z,12360.00
2018-06-07T09:16:40.784Z,10820.00
2018-06-07T09:17:40.870Z,10464.00
2018-06-07T09:18:40.936Z,10256.00
2018-06-07T09:19:41.020Z,10392.00
2018-06-07T09:20:41.100Z,9780.00
2018-06-07T09:21:41.172Z,9632.00
2018-06-07T09:22:41.253Z,9528.00
2018-06-07T09:23:41.333Z,9536.00
2018-06-07T09:24:41.752Z,9584.00
2018-06-07T09:25:41.488Z,9636.00
2018-06-07T09:26:41.565Z,10240.00
2018-06-07T09:27:41.648Z,11904.00
2018-06-07T09:28:41.724Z,12004.00
2018-06-07T09:29:41.808Z,12252.00
2018-06-07T09:30:41.884Z,13876.00
2018-06-07T09:31:41.957Z,16000.00
2018-06-07T09:32:42.033Z,14368.00
2018-06-07T09:33:42.112Z,16032.00
2018-06-07T09:34:42.541Z,16320.00
2018-06-07T09:35:42.269Z,16416.00
2018-06-07T09:36:42.345Z,16160.00
2018-06-07T09:37:42.425Z,16000.00
2018-06-07T09:38:42.501Z,15712.00
2018-06-07T09:39:42.589Z,15968.00
2018-06-07T09:40:42.665Z,16096.00
2018-06-07T09:41:42.737Z,15488.00
2018-06-07T09:42:42.817Z,15360.00
2018-06-07T09:43:42.893Z,15712.00
2018-06-07T09:44:42.978Z,15488.00
2018-06-07T09:45:43.066Z,15360.00
2018-06-07T09:46:43.133Z,15104.00
2018-06-07T09:47:43.209Z,15136.00
2018-06-07T09:48:43.289Z,15040.00
2018-06-07T09:49:43.397Z,14912.00
2018-06-07T09:50:43.442Z,14912.00
2018-06-07T09:51:43.522Z,14752.00
2018-06-07T09:52:43.608Z,14560.00
2018-06-07T09:53:43.683Z,14400.00
2018-06-07T09:54:43.765Z,14048.00
2018-06-07T09:55:43.842Z,12348.00
2018-06-07T09:56:43.913Z,12828.00
2018-06-07T09:57:43.994Z,13212.00
2018-06-07T09:58:44.074Z,12980.00
2018-06-07T09:59:44.306Z,12760.00
2018-06-07T10:00:44.230Z,12376.00
2018-06-07T10:01:44.310Z,12156.00
2018-06-07T10:02:44.387Z,11848.00
2018-06-07T10:03:44.466Z,11392.00
2018-06-07T10:04:44.551Z,10172.00
2018-06-07T10:05:44.630Z,7380.00
2018-06-07T10:06:44.698Z,7272.00
2018-06-07T10:07:44.778Z,7280.00
2018-06-07T10:08:44.855Z,7676.00
2018-06-07T10:09:44.942Z,7836.00
2018-06-07T10:10:45.024Z,7232.00
2018-06-07T10:11:45.087Z,7236.00
2018-06-07T10:12:45.167Z,7264.00
2018-06-07T10:13:45.243Z,9268.00
2018-06-07T10:14:45.474Z,11056.00
2018-06-07T10:15:45.398Z,11156.00
2018-06-07T10:16:45.479Z,11072.00
2018-06-07T10:17:45.551Z,10968.00
2018-06-07T10:18:45.628Z,10888.00
2018-06-07T10:19:45.712Z,10752.00
2018-06-07T10:20:45.787Z,10388.00
2018-06-07T10:21:45.859Z,9192.00
2018-06-07T10:22:45.935Z,10392.00
2018-06-07T10:23:46.012Z,9952.00
2018-06-07T10:24:46.223Z,10140.00
2018-06-07T10:25:46.165Z,10264.00
2018-06-07T10:26:46.239Z,10428.00
2018-06-07T10:27:46.321Z,9952.00
2018-06-07T10:28:46.395Z,10168.00
2018-06-07T10:29:46.479Z,10488.00
2018-06-07T10:30:46.551Z,10484.00
2018-06-07T10:31:46.622Z,10084.00
2018-06-07T10:32:46.699Z,8872.00
2018-06-07T10:33:46.775Z,10544.00
2018-06-07T10:34:46.859Z,9672.00
2018-06-07T10:35:46.935Z,9316.00
2018-06-07T10:36:47.007Z,8412.00
2018-06-07T10:37:47.087Z,8084.00
2018-06-07T10:38:47.159Z,7960.00
2018-06-07T10:39:47.235Z,7876.00
2018-06-07T10:40:47.423Z,7776.00
2018-06-07T10:41:47.387Z,7672.00
2018-06-07T10:42:47.463Z,7624.00
2018-06-07T10:43:47.540Z,7672.00
2018-06-07T10:44:47.615Z,7648.00
2018-06-07T10:45:47.703Z,9744.00
2018-06-07T10:46:47.779Z,8312.00
2018-06-07T10:47:47.843Z,9324.00
2018-06-07T10:48:47.923Z,9392.00
2018-06-07T10:49:47.999Z,9592.00
2018-06-07T10:50:48.195Z,9500.00
2018-06-07T10:51:48.147Z,8692.00
2018-06-07T10:52:48.224Z,8760.00
2018-06-07T10:53:48.300Z,9196.00
2018-06-07T10:54:48.376Z,9084.00
2018-06-07T10:55:48.460Z,9048.00
2018-06-07T10:56:48.536Z,8952.00
2018-06-07T10:57:48.604Z,8764.00
2018-06-07T10:58:48.707Z,8520.00
2018-06-07T10:59:48.756Z,8356.00
2018-06-07T11:00:48.836Z,7704.00
2018-06-07T11:01:48.916Z,8136.00
2018-06-07T11:02:48.988Z,7476.00
2018-06-07T11:03:49.060Z,6352.00
2018-06-07T11:04:49.134Z,7536.00
2018-06-07T11:05:49.237Z,7672.00
2018-06-07T11:06:49.284Z,6324.00
2018-06-07T11:07:49.365Z,6248.00
2018-06-07T11:08:49.436Z,6540.00
2018-06-07T11:09:49.525Z,5920.00
2018-06-07T11:10:49.593Z,7536.00
2018-06-07T11:11:49.669Z,7324.00
2018-06-07T11:12:49.738Z,7360.00
2018-06-07T11:13:49.812Z,7284.00
2018-06-07T11:14:49.885Z,7160.00
2018-06-07T11:15:49.969Z,7020.00
2018-06-07T11:16:50.045Z,7084.00
2018-06-07T11:17:50.113Z,7000.00
2018-06-07T11:18:50.185Z,6848.00
2018-06-07T11:19:51.189Z,6696.00
2018-06-07T11:20:50.681Z,6760.00
2018-06-07T11:21:50.414Z,6616.00
2018-06-07T11:22:50.485Z,6604.00
2018-06-07T11:23:50.617Z,6468.00
2018-06-07T11:24:50.637Z,6724.00
2018-06-07T11:25:50.718Z,6704.00
2018-06-07T11:26:50.793Z,6668.00
2018-06-07T11:27:50.861Z,6612.00
2018-06-07T11:28:50.934Z,6564.00
2018-06-07T11:29:51.009Z,6560.00
2018-06-07T11:30:51.239Z,6536.00
2018-06-07T11:31:51.158Z,6520.00
2018-06-07T11:32:51.237Z,6480.00
2018-06-07T11:33:51.315Z,6412.00
2018-06-07T11:34:51.381Z,6412.00
2018-06-07T11:35:51.465Z,6380.00
2018-06-07T11:36:51.538Z,6360.00
2018-06-07T11:37:51.609Z,6352.00
2018-06-07T11:38:51.686Z,6364.00
2018-06-07T11:39:51.758Z,6340.00
2018-06-07T11:40:51.883Z,6304.00
2018-06-07T11:41:51.914Z,6248.00
2018-06-07T11:42:51.982Z,6220.00
2018-06-07T11:43:52.058Z,6236.00
2018-06-07T11:44:52.130Z,6232.00
2018-06-07T11:45:52.394Z,6216.00
2018-06-07T11:46:52.279Z,6172.00
2018-06-07T11:47:52.357Z,6136.00
2018-06-07T11:48:52.468Z,6140.00
2018-06-07T11:49:52.507Z,6168.00
2018-06-07T11:50:52.587Z,6204.00
2018-06-07T11:51:52.662Z,6200.00
2018-06-07T11:52:52.730Z,6200.00
2018-06-07T11:53:52.802Z,6172.00
2018-06-07T11:54:52.893Z,6176.00
2018-06-07T11:55:52.958Z,6176.00
2018-06-07T11:56:53.035Z,6124.00
2018-06-07T11:57:53.103Z,6168.00
2018-06-07T11:58:53.178Z,6204.00
2018-06-07T11:59:53.251Z,6244.00
2018-06-07T12:00:53.670Z,6244.00
2018-06-07T12:01:53.403Z,6264.00
2018-06-07T12:02:53.475Z,6280.00
2018-06-07T12:03:53.550Z,6288.00
2018-06-07T12:04:53.627Z,6276.00
2018-06-07T12:05:53.707Z,6252.00
2018-06-07T12:06:53.783Z,6296.00
2018-06-07T12:07:53.851Z,6320.00
2018-06-07T12:08:53.927Z,6268.00
2018-06-07T12:09:53.998Z,6280.00
2018-06-07T12:10:54.319Z,6320.00
2018-06-07T12:11:54.151Z,6296.00
2018-06-07T12:12:54.223Z,6156.00
2018-06-07T12:13:54.299Z,6248.00
2018-06-07T12:14:54.372Z,6272.00
2018-06-07T12:15:54.457Z,6372.00
2018-06-07T12:16:54.539Z,6432.00
2018-06-07T12:17:54.599Z,6484.00